sensor_id;sensor_type;location;lat;lon;timestamp;P1;durP1;ratioP1;P2;durP2;ratioP2
16294;SDS011;8255;49.560;8.244;2022-11-15T00:02:36;13.73;;;8.07;;
16294;SDS011;8255;49.560;8.244;2022-11-15T00:05:22;8.70;;;7.80;;
16294;SDS011;8255;49.560;8.244;2022-11-15T00:08:07;9.23;;;7.57;;
16294;SDS011;8255;49.560;8.244;2022-11-15T00:10:55;11.23;;;8.20;;
16294;SDS011;8255;49.560;8.244;2022-11-15T00:13:40;10.85;;;8.00;;
16294;SDS011;8255;49.560;8.244;2022-11-15T00:16:25;12.18;;;8.10;;
16294;SDS011;8255;49.560;8.244;2022-11-15T00:19:10;9.32;;;7.97;;
16294;SDS011;8255;49.560;8.244;2022-11-15T00:21:56;9.98;;;8.25;;
16294;SDS011;8255;49.560;8.244;2022-11-15T00:24:41;9.20;;;8.05;;
16294;SDS011;8255;49.560;8.244;2022-11-15T00:27:26;10.23;;;8.23;;
16294;SDS011;8255;49.560;8.244;2022-11-15T00:30:11;8.75;;;7.82;;
16294;SDS011;8255;49.560;8.244;2022-11-15T00:32:56;11.18;;;7.78;;
16294;SDS011;8255;49.560;8.244;2022-11-15T00:35:41;8.65;;;7.80;;
16294;SDS011;8255;49.560;8.244;2022-11-15T00:38:31;10.30;;;8.52;;
16294;SDS011;8255;49.560;8.244;2022-11-15T00:41:16;11.15;;;8.20;;
16294;SDS011;8255;49.560;8.244;2022-11-15T00:44:01;12.52;;;8.50;;
16294;SDS011;8255;49.560;8.244;2022-11-15T00:46:46;10.32;;;7.88;;
16294;SDS011;8255;49.560;8.244;2022-11-15T00:49:32;11.00;;;8.20;;
16294;SDS011;8255;49.560;8.244;2022-11-15T00:52:17;10.27;;;8.27;;
16294;SDS011;8255;49.560;8.244;2022-11-15T00:55:04;9.25;;;8.35;;
16294;SDS011;8255;49.560;8.244;2022-11-15T00:57:49;8.68;;;7.78;;
16294;SDS011;8255;49.560;8.244;2022-11-15T01:00:34;10.32;;;8.35;;
16294;SDS011;8255;49.560;8.244;2022-11-15T01:03:19;8.35;;;7.07;;
16294;SDS011;8255;49.560;8.244;2022-11-15T01:06:04;10.40;;;7.82;;
16294;SDS011;8255;49.560;8.244;2022-11-15T01:08:49;12.00;;;8.18;;
16294;SDS011;8255;49.560;8.244;2022-11-15T01:11:35;8.05;;;7.25;;
16294;SDS011;8255;49.560;8.244;2022-11-15T01:14:20;9.55;;;8.18;;
16294;SDS011;8255;49.560;8.244;2022-11-15T01:17:05;8.55;;;7.65;;
16294;SDS011;8255;49.560;8.244;2022-11-15T01:19:50;8.48;;;7.65;;
16294;SDS011;8255;49.560;8.244;2022-11-15T01:22:35;10.77;;;8.18;;
16294;SDS011;8255;49.560;8.244;2022-11-15T01:25:20;8.57;;;7.18;;
16294;SDS011;8255;49.560;8.244;2022-11-15T01:28:06;10.55;;;7.50;;
16294;SDS011;8255;49.560;8.244;2022-11-15T01:30:50;8.23;;;7.30;;
16294;SDS011;8255;49.560;8.244;2022-11-15T01:33:35;9.25;;;7.65;;
16294;SDS011;8255;49.560;8.244;2022-11-15T01:36:21;8.40;;;7.07;;
16294;SDS011;8255;49.560;8.244;2022-11-15T01:39:07;7.38;;;6.35;;
16294;SDS011;8255;49.560;8.244;2022-11-15T01:41:52;7.75;;;6.72;;
16294;SDS011;8255;49.560;8.244;2022-11-15T01:44:40;7.55;;;6.85;;
16294;SDS011;8255;49.560;8.244;2022-11-15T01:47:25;7.85;;;6.53;;
16294;SDS011;8255;49.560;8.244;2022-11-15T01:50:12;6.88;;;5.97;;
16294;SDS011;8255;49.560;8.244;2022-11-15T01:52:59;6.72;;;6.18;;
16294;SDS011;8255;49.560;8.244;2022-11-15T01:55:44;7.65;;;6.70;;
16294;SDS011;8255;49.560;8.244;2022-11-15T01:58:29;6.68;;;6.07;;
16294;SDS011;8255;49.560;8.244;2022-11-15T02:01:15;6.60;;;6.00;;
16294;SDS011;8255;49.560;8.244;2022-11-15T02:04:01;8.80;;;6.80;;
16294;SDS011;8255;49.560;8.244;2022-11-15T02:06:47;7.13;;;6.53;;
16294;SDS011;8255;49.560;8.244;2022-11-15T02:09:33;7.35;;;6.50;;
16294;SDS011;8255;49.560;8.244;2022-11-15T02:12:19;7.15;;;6.40;;
16294;SDS011;8255;49.560;8.244;2022-11-15T02:15:04;7.00;;;6.35;;
16294;SDS011;8255;49.560;8.244;2022-11-15T02:17:56;6.55;;;5.95;;
16294;SDS011;8255;49.560;8.244;2022-11-15T02:20:44;7.18;;;6.47;;
16294;SDS011;8255;49.560;8.244;2022-11-15T02:23:37;7.50;;;6.53;;
16294;SDS011;8255;49.560;8.244;2022-11-15T02:26:31;6.90;;;6.30;;
16294;SDS011;8255;49.560;8.244;2022-11-15T02:29:24;7.82;;;6.30;;
16294;SDS011;8255;49.560;8.244;2022-11-15T02:32:13;7.32;;;6.35;;
16294;SDS011;8255;49.560;8.244;2022-11-15T02:35:01;7.82;;;7.03;;
16294;SDS011;8255;49.560;8.244;2022-11-15T02:37:49;7.22;;;6.47;;
16294;SDS011;8255;49.560;8.244;2022-11-15T02:40:38;7.13;;;6.53;;
16294;SDS011;8255;49.560;8.244;2022-11-15T02:43:28;7.32;;;6.35;;
16294;SDS011;8255;49.560;8.244;2022-11-15T02:46:33;7.68;;;6.03;;
16294;SDS011;8255;49.560;8.244;2022-11-15T02:49:38;8.60;;;6.57;;
16294;SDS011;8255;49.560;8.244;2022-11-15T02:52:24;7.40;;;6.60;;
16294;SDS011;8255;49.560;8.244;2022-11-15T02:58:15;8.43;;;6.32;;
16294;SDS011;8255;49.560;8.244;2022-11-15T03:01:04;8.10;;;6.32;;
16294;SDS011;8255;49.560;8.244;2022-11-15T03:03:55;8.30;;;7.30;;
16294;SDS011;8255;49.560;8.244;2022-11-15T03:06:44;7.20;;;6.50;;
16294;SDS011;8255;49.560;8.244;2022-11-15T03:09:32;8.00;;;7.20;;
16294;SDS011;8255;49.560;8.244;2022-11-15T03:12:21;8.15;;;6.43;;
16294;SDS011;8255;49.560;8.244;2022-11-15T03:15:09;7.22;;;6.28;;
16294;SDS011;8255;49.560;8.244;2022-11-15T03:17:58;7.70;;;7.00;;
16294;SDS011;8255;49.560;8.244;2022-11-15T03:20:44;8.27;;;6.60;;
16294;SDS011;8255;49.560;8.244;2022-11-15T03:23:30;7.72;;;6.93;;
16294;SDS011;8255;49.560;8.244;2022-11-15T03:26:16;9.15;;;6.85;;
16294;SDS011;8255;49.560;8.244;2022-11-15T03:29:04;6.88;;;6.28;;
16294;SDS011;8255;49.560;8.244;2022-11-15T03:31:51;7.20;;;6.10;;
16294;SDS011;8255;49.560;8.244;2022-11-15T03:34:39;7.35;;;6.70;;
16294;SDS011;8255;49.560;8.244;2022-11-15T03:37:27;7.13;;;6.38;;
16294;SDS011;8255;49.560;8.244;2022-11-15T03:40:16;7.78;;;6.90;;
16294;SDS011;8255;49.560;8.244;2022-11-15T03:43:02;7.53;;;6.70;;
16294;SDS011;8255;49.560;8.244;2022-11-15T03:45:50;7.00;;;6.38;;
16294;SDS011;8255;49.560;8.244;2022-11-15T03:48:37;7.00;;;6.40;;
16294;SDS011;8255;49.560;8.244;2022-11-15T03:51:24;9.77;;;6.35;;
16294;SDS011;8255;49.560;8.244;2022-11-15T03:54:09;6.85;;;6.03;;
16294;SDS011;8255;49.560;8.244;2022-11-15T03:56:55;6.88;;;6.18;;
16294;SDS011;8255;49.560;8.244;2022-11-15T03:59:40;7.35;;;6.35;;
16294;SDS011;8255;49.560;8.244;2022-11-15T04:02:25;7.32;;;6.47;;
16294;SDS011;8255;49.560;8.244;2022-11-15T04:05:10;9.00;;;6.22;;
16294;SDS011;8255;49.560;8.244;2022-11-15T04:07:55;8.30;;;6.97;;
16294;SDS011;8255;49.560;8.244;2022-11-15T04:10:40;6.90;;;6.13;;
16294;SDS011;8255;49.560;8.244;2022-11-15T04:13:26;6.68;;;6.07;;
16294;SDS011;8255;49.560;8.244;2022-11-15T04:16:11;7.07;;;6.38;;
16294;SDS011;8255;49.560;8.244;2022-11-15T04:18:55;7.95;;;6.78;;
16294;SDS011;8255;49.560;8.244;2022-11-15T04:21:54;7.88;;;7.18;;
16294;SDS011;8255;49.560;8.244;2022-11-15T04:24:57;8.75;;;6.80;;
16294;SDS011;8255;49.560;8.244;2022-11-15T04:27:42;8.05;;;7.28;;
16294;SDS011;8255;49.560;8.244;2022-11-15T04:30:28;7.65;;;6.90;;
16294;SDS011;8255;49.560;8.244;2022-11-15T04:33:13;8.32;;;7.53;;
16294;SDS011;8255;49.560;8.244;2022-11-15T04:35:58;8.70;;;6.82;;
16294;SDS011;8255;49.560;8.244;2022-11-15T04:39:01;8.13;;;7.32;;
16294;SDS011;8255;49.560;8.244;2022-11-15T04:41:46;8.88;;;7.13;;
16294;SDS011;8255;49.560;8.244;2022-11-15T04:44:31;7.30;;;6.60;;
16294;SDS011;8255;49.560;8.244;2022-11-15T04:47:17;7.15;;;6.45;;
16294;SDS011;8255;49.560;8.244;2022-11-15T04:50:03;9.32;;;7.07;;
16294;SDS011;8255;49.560;8.244;2022-11-15T04:52:50;9.05;;;6.90;;
16294;SDS011;8255;49.560;8.244;2022-11-15T04:55:35;7.55;;;6.88;;
16294;SDS011;8255;49.560;8.244;2022-11-15T04:58:20;7.65;;;6.80;;
16294;SDS011;8255;49.560;8.244;2022-11-15T05:01:06;7.53;;;6.75;;
16294;SDS011;8255;49.560;8.244;2022-11-15T05:03:52;8.43;;;6.75;;
16294;SDS011;8255;49.560;8.244;2022-11-15T05:06:55;7.82;;;7.13;;
16294;SDS011;8255;49.560;8.244;2022-11-15T05:09:40;8.18;;;7.15;;
16294;SDS011;8255;49.560;8.244;2022-11-15T05:12:25;8.40;;;6.82;;
16294;SDS011;8255;49.560;8.244;2022-11-15T05:15:10;8.50;;;6.82;;
16294;SDS011;8255;49.560;8.244;2022-11-15T05:17:57;8.32;;;7.50;;
16294;SDS011;8255;49.560;8.244;2022-11-15T05:20:43;8.57;;;7.70;;
16294;SDS011;8255;49.560;8.244;2022-11-15T05:23:28;8.63;;;7.60;;
16294;SDS011;8255;49.560;8.244;2022-11-15T05:26:13;8.45;;;6.75;;
16294;SDS011;8255;49.560;8.244;2022-11-15T05:28:59;7.43;;;6.72;;
16294;SDS011;8255;49.560;8.244;2022-11-15T05:31:44;7.95;;;7.25;;
16294;SDS011;8255;49.560;8.244;2022-11-15T05:34:29;8.25;;;7.38;;
16294;SDS011;8255;49.560;8.244;2022-11-15T05:37:15;8.23;;;6.65;;
16294;SDS011;8255;49.560;8.244;2022-11-15T05:40:00;7.15;;;6.43;;
16294;SDS011;8255;49.560;8.244;2022-11-15T05:42:45;7.03;;;6.40;;
16294;SDS011;8255;49.560;8.244;2022-11-15T05:45:31;7.20;;;6.35;;
16294;SDS011;8255;49.560;8.244;2022-11-15T05:48:15;7.95;;;6.32;;
16294;SDS011;8255;49.560;8.244;2022-11-15T05:51:00;7.35;;;6.65;;
16294;SDS011;8255;49.560;8.244;2022-11-15T05:53:48;6.35;;;5.75;;
16294;SDS011;8255;49.560;8.244;2022-11-15T05:56:33;7.85;;;5.90;;
16294;SDS011;8255;49.560;8.244;2022-11-15T05:59:18;7.00;;;6.28;;
16294;SDS011;8255;49.560;8.244;2022-11-15T06:02:03;6.15;;;5.65;;
16294;SDS011;8255;49.560;8.244;2022-11-15T06:04:48;6.82;;;6.22;;
16294;SDS011;8255;49.560;8.244;2022-11-15T06:07:33;7.40;;;6.70;;
16294;SDS011;8255;49.560;8.244;2022-11-15T06:10:19;7.03;;;6.43;;
16294;SDS011;8255;49.560;8.244;2022-11-15T06:13:04;6.97;;;6.30;;
16294;SDS011;8255;49.560;8.244;2022-11-15T06:15:50;7.32;;;6.00;;
16294;SDS011;8255;49.560;8.244;2022-11-15T06:18:35;6.70;;;5.68;;
16294;SDS011;8255;49.560;8.244;2022-11-15T06:21:20;8.18;;;6.40;;
16294;SDS011;8255;49.560;8.244;2022-11-15T06:24:05;6.70;;;6.10;;
16294;SDS011;8255;49.560;8.244;2022-11-15T06:26:52;6.15;;;5.57;;
16294;SDS011;8255;49.560;8.244;2022-11-15T06:29:36;6.32;;;5.72;;
16294;SDS011;8255;49.560;8.244;2022-11-15T06:32:21;7.25;;;5.97;;
16294;SDS011;8255;49.560;8.244;2022-11-15T06:35:06;7.05;;;6.45;;
16294;SDS011;8255;49.560;8.244;2022-11-15T06:37:51;9.10;;;5.75;;
16294;SDS011;8255;49.560;8.244;2022-11-15T06:40:37;6.85;;;6.22;;
16294;SDS011;8255;49.560;8.244;2022-11-15T06:43:24;7.63;;;6.40;;
16294;SDS011;8255;49.560;8.244;2022-11-15T06:46:09;7.05;;;6.35;;
16294;SDS011;8255;49.560;8.244;2022-11-15T06:48:53;7.72;;;6.70;;
16294;SDS011;8255;49.560;8.244;2022-11-15T06:51:38;8.02;;;7.22;;
16294;SDS011;8255;49.560;8.244;2022-11-15T06:54:23;10.68;;;7.10;;
16294;SDS011;8255;49.560;8.244;2022-11-15T06:57:08;7.80;;;7.05;;
16294;SDS011;8255;49.560;8.244;2022-11-15T06:59:54;7.88;;;7.07;;
16294;SDS011;8255;49.560;8.244;2022-11-15T07:02:39;8.73;;;6.97;;
16294;SDS011;8255;49.560;8.244;2022-11-15T07:05:24;10.35;;;7.00;;
16294;SDS011;8255;49.560;8.244;2022-11-15T07:08:09;9.23;;;7.93;;
16294;SDS011;8255;49.560;8.244;2022-11-15T07:10:54;8.93;;;8.02;;
16294;SDS011;8255;49.560;8.244;2022-11-15T07:13:39;12.48;;;10.70;;
16294;SDS011;8255;49.560;8.244;2022-11-15T07:16:25;14.57;;;10.25;;
16294;SDS011;8255;49.560;8.244;2022-11-15T07:19:10;9.35;;;8.35;;
16294;SDS011;8255;49.560;8.244;2022-11-15T07:21:55;8.02;;;7.22;;
16294;SDS011;8255;49.560;8.244;2022-11-15T07:24:40;9.23;;;7.13;;
16294;SDS011;8255;49.560;8.244;2022-11-15T07:27:25;8.68;;;7.32;;
16294;SDS011;8255;49.560;8.244;2022-11-15T07:30:10;8.35;;;7.55;;
16294;SDS011;8255;49.560;8.244;2022-11-15T07:32:57;10.35;;;8.20;;
16294;SDS011;8255;49.560;8.244;2022-11-15T07:35:43;9.13;;;7.88;;
16294;SDS011;8255;49.560;8.244;2022-11-15T07:38:30;8.50;;;7.70;;
16294;SDS011;8255;49.560;8.244;2022-11-15T07:41:16;8.82;;;7.90;;
16294;SDS011;8255;49.560;8.244;2022-11-15T07:44:01;9.23;;;8.32;;
16294;SDS011;8255;49.560;8.244;2022-11-15T07:46:46;14.82;;;8.68;;
16294;SDS011;8255;49.560;8.244;2022-11-15T07:49:32;9.35;;;8.23;;
16294;SDS011;8255;49.560;8.244;2022-11-15T07:52:17;9.02;;;8.13;;
16294;SDS011;8255;49.560;8.244;2022-11-15T07:55:02;12.68;;;7.82;;
16294;SDS011;8255;49.560;8.244;2022-11-15T07:57:47;8.07;;;7.28;;
16294;SDS011;8255;49.560;8.244;2022-11-15T08:00:32;8.27;;;7.28;;
16294;SDS011;8255;49.560;8.244;2022-11-15T08:03:18;8.98;;;7.50;;
16294;SDS011;8255;49.560;8.244;2022-11-15T08:06:04;8.23;;;7.20;;
16294;SDS011;8255;49.560;8.244;2022-11-15T08:08:49;9.95;;;7.53;;
16294;SDS011;8255;49.560;8.244;2022-11-15T08:11:34;8.45;;;7.00;;
16294;SDS011;8255;49.560;8.244;2022-11-15T08:14:19;8.93;;;7.35;;
16294;SDS011;8255;49.560;8.244;2022-11-15T08:17:06;7.88;;;7.07;;
16294;SDS011;8255;49.560;8.244;2022-11-15T08:19:51;7.88;;;7.18;;
16294;SDS011;8255;49.560;8.244;2022-11-15T08:22:37;7.10;;;6.40;;
16294;SDS011;8255;49.560;8.244;2022-11-15T08:25:22;7.07;;;6.38;;
16294;SDS011;8255;49.560;8.244;2022-11-15T08:28:10;8.23;;;6.28;;
16294;SDS011;8255;49.560;8.244;2022-11-15T08:30:55;8.02;;;6.47;;
16294;SDS011;8255;49.560;8.244;2022-11-15T08:33:40;6.60;;;6.10;;
16294;SDS011;8255;49.560;8.244;2022-11-15T08:36:25;7.13;;;6.18;;
16294;SDS011;8255;49.560;8.244;2022-11-15T08:39:11;7.88;;;6.35;;
16294;SDS011;8255;49.560;8.244;2022-11-15T08:41:57;9.73;;;6.60;;
16294;SDS011;8255;49.560;8.244;2022-11-15T08:44:42;7.95;;;6.63;;
16294;SDS011;8255;49.560;8.244;2022-11-15T08:47:27;8.43;;;7.15;;
16294;SDS011;8255;49.560;8.244;2022-11-15T08:50:12;8.48;;;6.43;;
16294;SDS011;8255;49.560;8.244;2022-11-15T08:52:56;7.90;;;6.63;;
16294;SDS011;8255;49.560;8.244;2022-11-15T08:55:43;6.97;;;6.35;;
16294;SDS011;8255;49.560;8.244;2022-11-15T08:58:28;7.65;;;6.90;;
16294;SDS011;8255;49.560;8.244;2022-11-15T09:01:14;8.13;;;7.05;;
16294;SDS011;8255;49.560;8.244;2022-11-15T09:03:59;7.45;;;6.05;;
16294;SDS011;8255;49.560;8.244;2022-11-15T09:06:44;6.95;;;6.35;;
16294;SDS011;8255;49.560;8.244;2022-11-15T09:09:29;7.78;;;6.38;;
16294;SDS011;8255;49.560;8.244;2022-11-15T09:12:15;6.82;;;5.88;;
16294;SDS011;8255;49.560;8.244;2022-11-15T09:15:01;6.65;;;5.72;;
16294;SDS011;8255;49.560;8.244;2022-11-15T09:17:46;6.30;;;5.70;;
16294;SDS011;8255;49.560;8.244;2022-11-15T09:20:31;6.43;;;5.82;;
16294;SDS011;8255;49.560;8.244;2022-11-15T09:23:17;5.70;;;5.20;;
16294;SDS011;8255;49.560;8.244;2022-11-15T09:26:02;6.07;;;5.57;;
16294;SDS011;8255;49.560;8.244;2022-11-15T09:28:49;6.03;;;5.53;;
16294;SDS011;8255;49.560;8.244;2022-11-15T09:31:34;5.80;;;5.30;;
16294;SDS011;8255;49.560;8.244;2022-11-15T09:34:18;6.80;;;6.15;;
16294;SDS011;8255;49.560;8.244;2022-11-15T09:37:04;6.60;;;6.00;;
16294;SDS011;8255;49.560;8.244;2022-11-15T09:39:49;6.97;;;5.80;;
16294;SDS011;8255;49.560;8.244;2022-11-15T09:42:43;6.80;;;6.15;;
16294;SDS011;8255;49.560;8.244;2022-11-15T09:45:32;7.07;;;6.38;;
16294;SDS011;8255;49.560;8.244;2022-11-15T09:48:44;6.57;;;5.97;;
16294;SDS011;8255;49.560;8.244;2022-11-15T09:51:40;8.00;;;6.32;;
16294;SDS011;8255;49.560;8.244;2022-11-15T09:54:13;8.90;;;6.70;;
16294;SDS011;8255;49.560;8.244;2022-11-15T09:56:42;6.45;;;5.85;;
16294;SDS011;8255;49.560;8.244;2022-11-15T09:59:17;7.80;;;6.22;;
16294;SDS011;8255;49.560;8.244;2022-11-15T10:01:49;6.78;;;6.18;;
16294;SDS011;8255;49.560;8.244;2022-11-15T10:04:19;5.88;;;5.32;;
16294;SDS011;8255;49.560;8.244;2022-11-15T10:06:46;8.02;;;5.72;;
16294;SDS011;8255;49.560;8.244;2022-11-15T10:09:17;6.10;;;5.50;;
16294;SDS011;8255;49.560;8.244;2022-11-15T10:11:44;7.88;;;5.65;;
16294;SDS011;8255;49.560;8.244;2022-11-15T10:14:11;6.13;;;5.63;;
16294;SDS011;8255;49.560;8.244;2022-11-15T10:16:57;5.95;;;5.43;;
16294;SDS011;8255;49.560;8.244;2022-11-15T10:19:28;6.70;;;5.97;;
16294;SDS011;8255;49.560;8.244;2022-11-15T10:22:00;6.43;;;5.88;;
16294;SDS011;8255;49.560;8.244;2022-11-15T10:24:33;7.72;;;5.88;;
16294;SDS011;8255;49.560;8.244;2022-11-15T10:27:00;5.97;;;5.47;;
16294;SDS011;8255;49.560;8.244;2022-11-15T10:29:27;6.47;;;5.88;;
16294;SDS011;8255;49.560;8.244;2022-11-15T10:31:53;6.55;;;5.88;;
16294;SDS011;8255;49.560;8.244;2022-11-15T10:34:22;6.22;;;5.70;;
16294;SDS011;8255;49.560;8.244;2022-11-15T10:36:54;6.68;;;5.65;;
16294;SDS011;8255;49.560;8.244;2022-11-15T10:39:21;7.35;;;6.45;;
16294;SDS011;8255;49.560;8.244;2022-11-15T10:41:47;7.50;;;6.82;;
16294;SDS011;8255;49.560;8.244;2022-11-15T10:44:21;7.10;;;6.50;;
16294;SDS011;8255;49.560;8.244;2022-11-15T10:46:48;6.40;;;5.90;;
16294;SDS011;8255;49.560;8.244;2022-11-15T10:49:31;7.30;;;6.30;;
16294;SDS011;8255;49.560;8.244;2022-11-15T10:51:58;7.40;;;6.32;;
16294;SDS011;8255;49.560;8.244;2022-11-15T10:54:27;7.55;;;6.78;;
16294;SDS011;8255;49.560;8.244;2022-11-15T10:56:55;8.27;;;6.80;;
16294;SDS011;8255;49.560;8.244;2022-11-15T10:59:23;7.25;;;6.35;;
16294;SDS011;8255;49.560;8.244;2022-11-15T11:01:50;6.45;;;5.75;;
16294;SDS011;8255;49.560;8.244;2022-11-15T11:04:17;8.82;;;6.28;;
16294;SDS011;8255;49.560;8.244;2022-11-15T11:06:49;7.20;;;6.50;;
16294;SDS011;8255;49.560;8.244;2022-11-15T11:09:21;7.25;;;6.55;;
16294;SDS011;8255;49.560;8.244;2022-11-15T11:11:49;8.13;;;6.18;;
16294;SDS011;8255;49.560;8.244;2022-11-15T11:14:17;6.72;;;6.00;;
16294;SDS011;8255;49.560;8.244;2022-11-15T11:16:47;7.53;;;6.78;;
16294;SDS011;8255;49.560;8.244;2022-11-15T11:19:23;6.88;;;6.15;;
16294;SDS011;8255;49.560;8.244;2022-11-15T11:21:56;7.03;;;6.32;;
16294;SDS011;8255;49.560;8.244;2022-11-15T11:24:28;7.07;;;6.38;;
16294;SDS011;8255;49.560;8.244;2022-11-15T11:27:03;6.80;;;6.13;;
16294;SDS011;8255;49.560;8.244;2022-11-15T11:29:34;6.47;;;5.97;;
16294;SDS011;8255;49.560;8.244;2022-11-15T11:32:07;7.43;;;6.72;;
16294;SDS011;8255;49.560;8.244;2022-11-15T11:34:40;9.60;;;6.40;;
16294;SDS011;8255;49.560;8.244;2022-11-15T11:37:14;12.88;;;6.35;;
16294;SDS011;8255;49.560;8.244;2022-11-15T11:39:45;8.75;;;6.88;;
16294;SDS011;8255;49.560;8.244;2022-11-15T11:42:14;9.25;;;6.97;;
16294;SDS011;8255;49.560;8.244;2022-11-15T11:44:46;7.80;;;6.50;;
16294;SDS011;8255;49.560;8.244;2022-11-15T11:47:15;8.27;;;6.47;;
16294;SDS011;8255;49.560;8.244;2022-11-15T11:49:46;8.80;;;6.40;;
16294;SDS011;8255;49.560;8.244;2022-11-15T11:52:18;6.68;;;6.07;;
16294;SDS011;8255;49.560;8.244;2022-11-15T11:54:52;7.40;;;6.25;;
16294;SDS011;8255;49.560;8.244;2022-11-15T11:57:22;6.78;;;6.13;;
16294;SDS011;8255;49.560;8.244;2022-11-15T11:59:53;6.60;;;5.95;;
16294;SDS011;8255;49.560;8.244;2022-11-15T12:02:24;6.25;;;5.75;;
16294;SDS011;8255;49.560;8.244;2022-11-15T12:04:56;6.32;;;5.72;;
16294;SDS011;8255;49.560;8.244;2022-11-15T12:07:26;7.15;;;5.97;;
16294;SDS011;8255;49.560;8.244;2022-11-15T12:09:55;6.25;;;5.57;;
16294;SDS011;8255;49.560;8.244;2022-11-15T12:12:25;6.13;;;5.32;;
16294;SDS011;8255;49.560;8.244;2022-11-15T12:14:55;8.32;;;5.93;;
16294;SDS011;8255;49.560;8.244;2022-11-15T12:17:23;6.15;;;5.65;;
16294;SDS011;8255;49.560;8.244;2022-11-15T12:19:49;5.95;;;5.07;;
16294;SDS011;8255;49.560;8.244;2022-11-15T12:22:18;4.47;;;4.18;;
16294;SDS011;8255;49.560;8.244;2022-11-15T12:24:50;4.50;;;4.10;;
16294;SDS011;8255;49.560;8.244;2022-11-15T12:27:18;4.60;;;4.20;;
16294;SDS011;8255;49.560;8.244;2022-11-15T12:29:46;4.97;;;4.50;;
16294;SDS011;8255;49.560;8.244;2022-11-15T12:32:17;4.45;;;4.13;;
16294;SDS011;8255;49.560;8.244;2022-11-15T12:34:45;4.03;;;3.72;;
16294;SDS011;8255;49.560;8.244;2022-11-15T12:40:16;4.95;;;4.45;;
16294;SDS011;8255;49.560;8.244;2022-11-15T12:42:56;4.47;;;4.18;;
16294;SDS011;8255;49.560;8.244;2022-11-15T12:45:25;4.30;;;4.00;;
16294;SDS011;8255;49.560;8.244;2022-11-15T12:47:51;4.43;;;4.03;;
16294;SDS011;8255;49.560;8.244;2022-11-15T12:50:23;4.53;;;4.13;;
16294;SDS011;8255;49.560;8.244;2022-11-15T12:53:28;4.45;;;3.88;;
16294;SDS011;8255;49.560;8.244;2022-11-15T12:58:42;4.00;;;3.75;;
16294;SDS011;8255;49.560;8.244;2022-11-15T13:01:09;3.80;;;3.50;;
16294;SDS011;8255;49.560;8.244;2022-11-15T13:03:43;4.00;;;3.70;;
16294;SDS011;8255;49.560;8.244;2022-11-15T13:06:34;4.80;;;3.70;;
16294;SDS011;8255;49.560;8.244;2022-11-15T13:09:00;4.03;;;3.83;;
16294;SDS011;8255;49.560;8.244;2022-11-15T13:11:43;5.03;;;3.58;;
16294;SDS011;8255;49.560;8.244;2022-11-15T13:17:16;3.50;;;3.30;;
16294;SDS011;8255;49.560;8.244;2022-11-15T13:19:45;3.70;;;3.42;;
16294;SDS011;8255;49.560;8.244;2022-11-15T13:22:11;3.78;;;3.47;;
16294;SDS011;8255;49.560;8.244;2022-11-15T13:24:55;3.35;;;3.08;;
16294;SDS011;8255;49.560;8.244;2022-11-15T13:27:22;3.67;;;3.38;;
16294;SDS011;8255;49.560;8.244;2022-11-15T13:29:48;3.15;;;2.95;;
16294;SDS011;8255;49.560;8.244;2022-11-15T13:32:16;3.20;;;2.90;;
16294;SDS011;8255;49.560;8.244;2022-11-15T13:34:43;4.00;;;3.70;;
16294;SDS011;8255;49.560;8.244;2022-11-15T13:37:11;4.85;;;3.20;;
16294;SDS011;8255;49.560;8.244;2022-11-15T13:39:38;3.50;;;3.20;;
16294;SDS011;8255;49.560;8.244;2022-11-15T13:42:12;4.53;;;3.17;;
16294;SDS011;8255;49.560;8.244;2022-11-15T13:44:40;3.38;;;3.08;;
16294;SDS011;8255;49.560;8.244;2022-11-15T13:47:21;3.40;;;2.97;;
16294;SDS011;8255;49.560;8.244;2022-11-15T13:49:47;3.25;;;3.00;;
16294;SDS011;8255;49.560;8.244;2022-11-15T13:52:14;4.28;;;3.33;;
16294;SDS011;8255;49.560;8.244;2022-11-15T13:54:42;3.30;;;3.00;;
16294;SDS011;8255;49.560;8.244;2022-11-15T13:57:10;3.90;;;3.60;;
16294;SDS011;8255;49.560;8.244;2022-11-15T13:59:44;3.92;;;3.38;;
16294;SDS011;8255;49.560;8.244;2022-11-15T14:02:12;3.53;;;3.22;;
16294;SDS011;8255;49.560;8.244;2022-11-15T14:04:45;3.70;;;3.35;;
16294;SDS011;8255;49.560;8.244;2022-11-15T14:07:15;3.40;;;3.20;;
16294;SDS011;8255;49.560;8.244;2022-11-15T14:09:41;3.30;;;3.10;;
16294;SDS011;8255;49.560;8.244;2022-11-15T14:12:21;4.93;;;3.45;;
16294;SDS011;8255;49.560;8.244;2022-11-15T14:14:48;3.47;;;3.10;;
16294;SDS011;8255;49.560;8.244;2022-11-15T14:17:18;3.72;;;3.42;;
16294;SDS011;8255;49.560;8.244;2022-11-15T14:19:46;7.20;;;3.83;;
16294;SDS011;8255;49.560;8.244;2022-11-15T14:22:14;3.90;;;3.53;;
16294;SDS011;8255;49.560;8.244;2022-11-15T14:24:41;4.22;;;3.83;;
16294;SDS011;8255;49.560;8.244;2022-11-15T14:27:18;4.55;;;3.75;;
16294;SDS011;8255;49.560;8.244;2022-11-15T14:29:45;3.67;;;3.45;;
16294;SDS011;8255;49.560;8.244;2022-11-15T14:32:14;3.80;;;3.50;;
16294;SDS011;8255;49.560;8.244;2022-11-15T14:34:40;5.00;;;3.72;;
16294;SDS011;8255;49.560;8.244;2022-11-15T14:37:10;4.18;;;3.88;;
16294;SDS011;8255;49.560;8.244;2022-11-15T14:39:42;4.50;;;3.72;;
16294;SDS011;8255;49.560;8.244;2022-11-15T14:42:08;3.60;;;3.33;;
16294;SDS011;8255;49.560;8.244;2022-11-15T14:44:35;3.60;;;3.30;;
16294;SDS011;8255;49.560;8.244;2022-11-15T14:47:02;5.63;;;3.35;;
16294;SDS011;8255;49.560;8.244;2022-11-15T14:49:28;3.80;;;3.60;;
16294;SDS011;8255;49.560;8.244;2022-11-15T14:51:54;7.35;;;3.50;;
16294;SDS011;8255;49.560;8.244;2022-11-15T14:54:22;3.85;;;3.55;;
16294;SDS011;8255;49.560;8.244;2022-11-15T14:56:48;5.40;;;3.83;;
16294;SDS011;8255;49.560;8.244;2022-11-15T14:59:15;5.20;;;4.68;;
16294;SDS011;8255;49.560;8.244;2022-11-15T15:01:41;3.78;;;3.40;;
16294;SDS011;8255;49.560;8.244;2022-11-15T15:04:08;4.00;;;3.70;;
16294;SDS011;8255;49.560;8.244;2022-11-15T15:06:34;4.40;;;4.00;;
16294;SDS011;8255;49.560;8.244;2022-11-15T15:09:00;4.18;;;3.75;;
16294;SDS011;8255;49.560;8.244;2022-11-15T15:11:29;4.55;;;3.85;;
16294;SDS011;8255;49.560;8.244;2022-11-15T15:13:56;4.07;;;3.67;;
16294;SDS011;8255;49.560;8.244;2022-11-15T15:16:25;4.45;;;3.70;;
16294;SDS011;8255;49.560;8.244;2022-11-15T15:18:51;4.60;;;4.20;;
16294;SDS011;8255;49.560;8.244;2022-11-15T15:21:19;3.70;;;3.40;;
16294;SDS011;8255;49.560;8.244;2022-11-15T15:23:46;3.67;;;3.40;;
16294;SDS011;8255;49.560;8.244;2022-11-15T15:26:12;3.47;;;3.15;;
16294;SDS011;8255;49.560;8.244;2022-11-15T15:28:40;4.80;;;3.50;;
16294;SDS011;8255;49.560;8.244;2022-11-15T15:31:07;4.50;;;3.63;;
16294;SDS011;8255;49.560;8.244;2022-11-15T15:33:33;4.10;;;3.80;;
16294;SDS011;8255;49.560;8.244;2022-11-15T15:36:00;3.65;;;3.35;;
16294;SDS011;8255;49.560;8.244;2022-11-15T15:38:26;3.80;;;3.50;;
16294;SDS011;8255;49.560;8.244;2022-11-15T15:40:52;3.50;;;3.30;;
16294;SDS011;8255;49.560;8.244;2022-11-15T15:43:19;3.60;;;3.28;;
16294;SDS011;8255;49.560;8.244;2022-11-15T15:45:47;6.97;;;3.50;;
16294;SDS011;8255;49.560;8.244;2022-11-15T15:48:14;3.60;;;3.30;;
16294;SDS011;8255;49.560;8.244;2022-11-15T15:50:40;24.58;;;10.00;;
16294;SDS011;8255;49.560;8.244;2022-11-15T15:53:08;15.30;;;7.95;;
16294;SDS011;8255;49.560;8.244;2022-11-15T15:55:35;13.55;;;6.32;;
16294;SDS011;8255;49.560;8.244;2022-11-15T15:58:02;10.80;;;5.55;;
16294;SDS011;8255;49.560;8.244;2022-11-15T16:00:28;6.28;;;5.65;;
16294;SDS011;8255;49.560;8.244;2022-11-15T16:02:59;6.65;;;5.40;;
16294;SDS011;8255;49.560;8.244;2022-11-15T16:05:25;6.25;;;4.80;;
16294;SDS011;8255;49.560;8.244;2022-11-15T16:07:51;15.27;;;8.77;;
16294;SDS011;8255;49.560;8.244;2022-11-15T16:10:20;11.47;;;9.03;;
16294;SDS011;8255;49.560;8.244;2022-11-15T16:12:46;11.60;;;7.75;;
16294;SDS011;8255;49.560;8.244;2022-11-15T16:15:13;17.52;;;12.30;;
16294;SDS011;8255;49.560;8.244;2022-11-15T16:17:40;17.98;;;16.08;;
16294;SDS011;8255;49.560;8.244;2022-11-15T16:20:10;15.80;;;14.15;;
16294;SDS011;8255;49.560;8.244;2022-11-15T16:22:42;8.07;;;7.28;;
16294;SDS011;8255;49.560;8.244;2022-11-15T16:25:10;8.30;;;7.50;;
16294;SDS011;8255;49.560;8.244;2022-11-15T16:27:36;6.32;;;5.80;;